Adair, IL (61411)

12:38 AM CDT on April 30, 2017 (GMT -0500)
farm ground | | Change Station
Active Advisory: Flood Warning

Elev 646 ft 40.37 °N, 90.51 °W | Updated 16 seconds ago

Rain
Rain
45.5 °F
Feels Like 40 °F
N
12.0
Wind Variable Wind from ENE

Today
High -- | Low -- °F
--% Chance of Precip.
Yesterday
High -- | Low -- °F
Precip. -- in
Pressure 29.93 in
Visibility 10.0 miles
Clouds Overcast 600 ft
Windchill 40 °F
Dew Point 44 °F
Humidity 98%
Rainfall 0.02 in
Snow Depth Not available.
6:02 AM 7:56 PM
Waxing Crescent, 19% visible
METAR KMQB 300515Z AUTO 06010G16KT 10SM -RA OVC006 07/07 A2993 RMK AO2 T00700068
Pressure 29.93 in
Visibility 10.0 miles
Clouds Overcast 600 ft
Windchill 40 °F
Dew Point 44 °F
Humidity 98%
Rainfall 0.02 in
Snow Depth Not available.
6:02 AM 7:56 PM
Waxing Crescent, 19% visible
METAR KMQB 300515Z AUTO 06010G16KT 10SM -RA OVC006 07/07 A2993 RMK AO2 T00700068

Get Your Daily Forecast Email!

Thanks for signing up!

Be on the lookout for a verification email in your inbox.

You'll start receiving severe weather alerts in your inbox..

×

10-Day Weather Forecast

Almanac

Astronomy

Apr. 30, 2017 Rise Set
Actual Time
Civil Twilight
Nautical Twilight
Astronomical Twilight
Moon
Length of Visible Light
Length of Day
Tomorrow will be .
, % of the Moon is Illuminated

Today's Extremes

State Highs State Lows

Community

WunderPhotos

WunderBlog® & News

Nearby

Air Quality

  Air Quality AQ Index Pollutant
Not available.

Snow Depth

Station Depth Elevation

Earthquake Activity

City Distance Mag. Time & Date
Minimum magnitude displayed is 2.5.

Coastal Water Temperatures

Place Temperature

Stations

Nearby Weather Stations

Station Location Temp. Windchill Dew Point Humidity Wind Precip. Elev Updated Type
                   

Watches & Warnings

Flood Warning
Issued: 8:57 PM CDT Apr. 29, 2017 – National Weather Service

... Flood Warning now in effect until Wednesday evening...

The Flood Warning continues for
the la moine river at Colmar.
* Until Wednesday evening.
* At 7:45 PM Saturday the stage was 15.3 feet... and rising.
* Flood stage is 20.0 feet.
* No flooding is occurring and moderate flooding is forecast.
* Forecast... rise above flood stage Sunday morning... and continue
rising to 23.7 feet Monday. Fall below flood stage Wednesday
evening.
* Impact... at 22.5 feet... water affects lower roads around
Birmingham.


Lat... Lon 4043 9093 4024 9074 4013 9066 4013 9072
      4041 9102


Rp Kinney